Time;durP1;ratioP1;P1;durP2;ratioP2;P2;SDS_P1;SDS_P2;PMS_P1;PMS_P2;Temp;Humidity;BMP_temperature;BMP_pressure;BME280_temperature;BME280_humidity;BME280_pressure;Samples;Min_cycle;Max_cycle;Signal;HPM_P1;HPM_P2
2023/10/02 00:00:30;;;;;;;;;;;;;;;19.01;58.14;101061.44;6055991;23;7255;-75
2023/10/02 00:02:56;;;;;;;;;;;;;;;19.00;58.70;101055.34;6080803;23;7151;-75
2023/10/02 00:05:40;;;;;;;;;;;;;;;18.99;59.15;101055.28;6061114;23;6763;-75
2023/10/02 00:08:06;;;;;;;;;;;;;;;18.96;58.81;101048.31;6062031;23;7028;-75
2023/10/02 00:10:31;;;;;;;;;;;;;;;18.96;58.59;101048.31;6060540;23;6775;-75
2023/10/02 00:13:00;;;;;;;;;;;;;;;18.95;58.73;101048.25;6085614;23;6896;-75
2023/10/02 00:15:26;;;;;;;;;;;;;;;18.92;58.42;101049.06;6086409;23;6775;-73
2023/10/02 00:17:52;;;;;;;;;;;;;;;18.91;58.74;101047.31;6087349;23;6974;-74
2023/10/02 00:20:26;;;;;;;;;;;;;;;18.88;58.32;101049.84;6115857;23;6789;-74
2023/10/02 00:22:52;;;;;;;;;;;;;;;18.87;58.73;101048.09;6091990;23;7008;-74
2023/10/02 00:25:22;;;;;;;;;;;;;;;18.85;58.96;101049.78;6089883;23;6747;-74
2023/10/02 00:27:51;;;;;;;;;;;;;;;18.87;59.44;101048.09;6089896;23;6771;-74
2023/10/02 00:30:23;;;;;;;;;;;;;;;18.86;58.85;101044.59;6115003;23;6914;-74
2023/10/02 00:32:51;;;;;;;;;;;;;;;18.87;58.89;101053.28;6063426;23;7042;-74
2023/10/02 00:35:17;;;;;;;;;;;;;;;18.89;59.17;101054.19;6087120;23;6827;-73
2023/10/02 00:37:43;;;;;;;;;;;;;;;18.86;59.22;101052.38;6063571;23;6974;-74
2023/10/02 00:40:26;;;;;;;;;;;;;;;18.85;59.15;101053.22;6086224;23;6799;-74
2023/10/02 00:42:58;;;;;;;;;;;;;;;18.84;59.07;101053.22;6114153;23;7015;-74
2023/10/02 00:45:30;;;;;;;;;;;;;;;18.84;59.08;101050.63;6089353;23;6783;-73
2023/10/02 00:50:54;;;;;;;;;;;;;;;18.90;60.20;101045.53;6095653;23;6783;-74
2023/10/02 00:53:37;;;;;;;;;;;;;;;18.93;59.74;101045.66;6092438;23;6959;-74
2023/10/02 00:56:20;;;;;;;;;;;;;;;18.95;59.28;101043.06;6094350;23;6787;-73
2023/10/02 00:58:54;;;;;;;;;;;;;;;18.96;59.78;101042.22;6069122;23;7116;-73
2023/10/02 01:01:22;;;;;;;;;;;;;;;18.96;59.88;101043.09;6091672;23;6791;-73
2023/10/02 01:06:35;;;;;;;;;;;;;;;19.07;60.38;101045.09;6095821;23;6783;-74
2023/10/02 01:09:01;;;;;;;;;;;;;;;19.15;60.29;101046.16;6065779;23;6997;-74
2023/10/02 01:11:28;;;;;;;;;;;;;;;19.24;59.83;101051.56;6090871;23;7234;-74
2023/10/02 01:13:54;;;;;;;;;;;;;;;19.28;59.71;101040.41;6092489;23;6767;-74
2023/10/02 01:16:20;;;;;;;;;;;;;;;19.34;59.74;101041.38;6091941;23;7300;-74
2023/10/02 01:18:48;;;;;;;;;;;;;;;19.39;59.54;101039.75;6088596;23;6934;-73
2023/10/02 01:21:18;;;;;;;;;;;;;;;19.41;59.72;101038.06;6092489;23;6843;-74
2023/10/02 01:26:50;;;;;;;;;;;;;;;19.44;59.91;101045.94;6048217;23;6779;-73
2023/10/02 01:29:16;;;;;;;;;;;;;;;19.47;59.86;101040.78;6062307;23;6802;-73
2023/10/02 01:31:42;;;;;;;;;;;;;;;19.52;59.73;101043.50;6087037;23;8244;-74
2023/10/02 01:36:53;;;;;;;;;;;;;;;19.60;59.35;101041.03;6068217;23;6784;-74
2023/10/02 01:39:21;;;;;;;;;;;;;;;19.64;59.48;101048.09;6064486;23;7161;-74
2023/10/02 01:41:52;;;;;;;;;;;;;;;19.66;59.13;101036.00;6063713;23;6775;-74
2023/10/02 01:44:22;;;;;;;;;;;;;;;19.69;59.10;101043.84;6064586;23;6859;-73
2023/10/02 01:46:49;;;;;;;;;;;;;;;19.72;59.67;101036.13;6064038;23;6775;-74
2023/10/02 01:49:24;;;;;;;;;;;;;;;19.78;59.66;101024.97;6062791;23;7013;-74
2023/10/02 01:52:01;;;;;;;;;;;;;;;19.87;59.56;101030.34;6058909;23;6775;-74
2023/10/02 01:54:29;;;;;;;;;;;;;;;19.94;59.54;101029.66;6058688;23;6973;-74
2023/10/02 01:56:56;;;;;;;;;;;;;;;20.02;59.20;101035.00;6051873;23;7227;-74
2023/10/02 01:59:24;;;;;;;;;;;;;;;20.07;59.44;101022.94;6034973;23;7329;-74
2023/10/02 02:01:57;;;;;;;;;;;;;;;20.13;59.23;101024.78;6057491;23;7335;-74
2023/10/02 02:04:28;;;;;;;;;;;;;;;20.19;58.81;101026.66;6034088;23;6986;-74
2023/10/02 02:06:57;;;;;;;;;;;;;;;20.23;58.74;101029.34;6056517;23;6918;-74
2023/10/02 02:09:32;;;;;;;;;;;;;;;20.27;58.68;101030.22;6057771;23;6830;-74
2023/10/02 02:12:05;;;;;;;;;;;;;;;20.29;58.51;101018.16;6029622;23;7854;-74
2023/10/02 02:14:49;;;;;;;;;;;;;;;20.31;58.40;101021.66;6057451;23;7013;-74
2023/10/02 02:17:23;;;;;;;;;;;;;;;20.31;58.08;101021.66;6059097;23;7062;-74
2023/10/02 02:19:49;;;;;;;;;;;;;;;20.29;57.98;101018.16;6060027;23;6898;-74
2023/10/02 02:22:23;;;;;;;;;;;;;;;20.29;57.79;101023.34;6033827;23;7244;-74
2023/10/02 02:24:51;;;;;;;;;;;;;;;20.29;57.87;101028.56;6060309;23;6835;-74
2023/10/02 02:27:19;;;;;;;;;;;;;;;20.28;57.77;101023.31;6059225;23;7156;-74
2023/10/02 02:29:54;;;;;;;;;;;;;;;20.22;57.59;101022.34;6036177;23;7221;-74
2023/10/02 02:32:36;;;;;;;;;;;;;;;20.17;57.16;101024.00;6030235;23;7055;-74
2023/10/02 02:35:09;;;;;;;;;;;;;;;20.11;57.51;101016.06;6061029;23;6791;-72
2023/10/02 02:37:35;;;;;;;;;;;;;;;20.07;57.66;101022.09;6037854;23;7137;-72
2023/10/02 02:40:23;;;;;;;;;;;;;;;20.03;57.61;101020.25;6063288;23;6999;-73
2023/10/02 02:42:51;;;;;;;;;;;;;;;19.97;57.72;101018.41;6041853;23;7216;-73
2023/10/02 02:45:28;;;;;;;;;;;;;;;19.97;58.08;101016.69;6035019;23;7085;-73
2023/10/02 02:48:06;;;;;;;;;;;;;;;19.98;58.02;101013.25;6041475;23;7135;-72
2023/10/02 02:50:37;;;;;;;;;;;;;;;20.01;57.77;101011.53;6047879;23;6967;-73
2023/10/02 02:53:21;;;;;;;;;;;;;;;20.04;58.48;101006.38;6045159;23;7244;-73
2023/10/02 02:56:15;;;;;;;;;;;;;;;20.07;58.38;101009.94;6068000;23;6795;-73
2023/10/02 02:58:50;;;;;;;;;;;;;;;20.13;57.96;101006.56;6047992;23;6960;-71
2023/10/02 03:01:24;;;;;;;;;;;;;;;20.18;58.00;100991.03;6066703;23;6787;-72
2023/10/02 03:03:56;;;;;;;;;;;;;;;20.21;57.95;100994.56;6066557;23;6990;-74
2023/10/02 03:06:23;;;;;;;;;;;;;;;20.25;57.64;100995.50;6065804;23;6771;-73
2023/10/02 03:08:51;;;;;;;;;;;;;;;20.30;57.86;100996.47;6061693;23;6903;-73
2023/10/02 03:11:19;;;;;;;;;;;;;;;20.35;57.83;100987.00;6040779;23;6948;-74
2023/10/02 03:13:49;;;;;;;;;;;;;;;20.42;57.38;100997.53;6065999;23;6783;-72
2023/10/02 03:16:28;;;;;;;;;;;;;;;20.47;57.64;100983.72;6041134;23;6967;-74
2023/10/02 03:18:54;;;;;;;;;;;;;;;20.51;57.25;100993.34;6065991;23;6775;-73
2023/10/02 03:21:24;;;;;;;;;;;;;;;20.56;56.99;100995.16;6063929;23;6783;-73
2023/10/02 03:23:58;;;;;;;;;;;;;;;20.57;56.95;100987.38;6065581;23;7042;-74
2023/10/02 03:29:02;;;;;;;;;;;;;;;20.57;56.85;100981.28;6079619;23;6832;-74
2023/10/02 03:32:01;;;;;;;;;;;;;;;20.56;56.88;100985.59;6044060;23;7167;-73
2023/10/02 03:34:30;;;;;;;;;;;;;;;20.55;56.36;100989.06;6068343;23;6771;-73
2023/10/02 03:37:03;;;;;;;;;;;;;;;20.54;56.69;100982.09;6043482;23;7223;-73
2023/10/02 03:42:33;;;;;;;;;;;;;;;20.56;56.66;100988.19;6068394;23;7196;-72
2023/10/02 03:45:04;;;;;;;;;;;;;;;20.59;56.50;100982.19;6052315;23;6981;-73
2023/10/02 03:47:33;;;;;;;;;;;;;;;20.60;56.43;100981.31;6114586;23;6945;-74
2023/10/02 03:50:00;;;;;;;;;;;;;;;20.61;56.48;100978.75;6091532;23;6775;-74
2023/10/02 03:52:29;;;;;;;;;;;;;;;20.63;56.32;100970.97;6085249;23;6919;-74
2023/10/02 03:54:55;;;;;;;;;;;;;;;20.64;56.07;100976.19;6062136;23;7243;-73
2023/10/02 03:57:47;;;;;;;;;;;;;;;20.67;56.28;100972.75;6082496;23;6882;-75
2023/10/02 04:00:18;;;;;;;;;;;;;;;20.70;56.15;100971.94;6065245;23;6974;-73
2023/10/02 04:02:51;;;;;;;;;;;;;;;20.71;56.03;100965.88;6061090;23;13041;-74
2023/10/02 04:05:34;;;;;;;;;;;;;;;20.72;55.92;100970.22;6061195;23;7188;-74
2023/10/02 04:08:21;;;;;;;;;;;;;;;20.73;55.68;100967.66;6086770;23;6854;-74
2023/10/02 04:10:55;;;;;;;;;;;;;;;20.71;55.93;100971.94;6109598;23;6970;-74
2023/10/02 04:13:33;;;;;;;;;;;;;;;20.72;56.00;100962.41;6085242;23;8467;-74
2023/10/02 04:18:46;;;;;;;;;;;;;;;20.64;55.52;100950.16;6087854;23;6957;-74
2023/10/02 04:21:14;;;;;;;;;;;;;;;20.63;55.78;100961.41;6086503;23;6855;-74
2023/10/02 04:23:41;;;;;;;;;;;;;;;20.60;55.81;100955.28;6087948;23;6803;-74
2023/10/02 04:26:20;;;;;;;;;;;;;;;20.56;55.64;100964.78;6063354;23;6939;-73
2023/10/02 04:28:58;;;;;;;;;;;;;;;20.51;55.71;100956.03;6086452;23;6970;-74
2023/10/02 04:31:34;;;;;;;;;;;;;;;20.48;55.57;100958.59;6063666;23;6958;-74
2023/10/02 04:36:44;;;;;;;;;;;;;;;20.40;55.85;100953.25;6086686;23;6787;-74
2023/10/02 04:42:14;;;;;;;;;;;;;;;20.36;56.25;100952.31;6097948;23;7014;-74
2023/10/02 04:44:48;;;;;;;;;;;;;;;20.34;56.30;100948.81;6086380;23;6786;-73
2023/10/02 04:47:20;;;;;;;;;;;;;;;20.34;56.10;100951.41;6086776;23;6787;-74
2023/10/02 04:52:56;;;;;;;;;;;;;;;20.30;55.92;100954.84;6086718;23;6807;-74
2023/10/02 04:55:49;;;;;;;;;;;;;;;20.29;56.09;100955.69;6063801;23;7006;-74
2023/10/02 04:58:19;;;;;;;;;;;;;;;20.26;55.67;100951.28;6087372;23;6787;-73
2023/10/02 05:03:30;;;;;;;;;;;;;;;20.21;56.13;100952.06;6084593;23;6775;-73
2023/10/02 05:06:02;;;;;;;;;;;;;;;20.19;56.00;100959.84;6063604;23;6942;-74
2023/10/02 05:08:40;;;;;;;;;;;;;;;20.17;56.01;100952.84;6089513;23;6787;-73
2023/10/02 05:11:23;;;;;;;;;;;;;;;20.10;56.19;100955.38;6087894;23;6943;-74
2023/10/02 05:13:59;;;;;;;;;;;;;;;20.07;56.21;100946.63;6087727;23;6850;-74
2023/10/02 05:16:34;;;;;;;;;;;;;;;20.02;56.23;100951.75;6066644;23;7255;-74
2023/10/02 05:21:46;;;;;;;;;;;;;;;19.97;56.33;100951.66;6118837;23;6862;-74
2023/10/02 05:24:15;;;;;;;;;;;;;;;19.96;56.80;100951.63;6097383;23;7176;-74
2023/10/02 05:26:46;;;;;;;;;;;;;;;19.98;57.04;100955.13;6094113;23;6938;-74
2023/10/02 05:29:36;;;;;;;;;;;;;;;20.00;56.41;100955.16;6095739;23;6955;-74
2023/10/02 05:32:16;;;;;;;;;;;;;;;20.00;56.51;100956.06;6098358;23;6779;-74
2023/10/02 05:34:58;;;;;;;;;;;;;;;20.03;56.96;100955.22;6096385;23;6916;-74
2023/10/02 05:37:31;;;;;;;;;;;;;;;20.07;56.62;100964.84;6097768;23;6775;-74
2023/10/02 05:48:14;;;;;;;;;;;;;;;20.20;56.54;100982.41;6124217;23;6779;-74
2023/10/02 05:50:47;;;;;;;;;;;;;;;20.22;56.68;100974.66;6148497;23;6758;-74
2023/10/02 05:53:19;;;;;;;;;;;;;;;20.21;56.57;100978.09;6143839;23;7015;-74
2023/10/02 05:56:04;;;;;;;;;;;;;;;20.20;56.16;100978.94;6169929;23;7146;-75
2023/10/02 05:58:31;;;;;;;;;;;;;;;20.17;56.46;100986.69;6170749;23;6775;-76
2023/10/02 06:01:04;;;;;;;;;;;;;;;20.18;56.51;100991.03;6168685;23;6945;-75
2023/10/02 06:03:34;;;;;;;;;;;;;;;20.21;56.69;100993.72;6165233;23;6783;-75
2023/10/02 06:06:17;;;;;;;;;;;;;;;20.25;56.67;100995.50;6119497;23;6969;-77
2023/10/02 06:08:49;;;;;;;;;;;;;;;20.32;56.93;100986.97;6122140;23;6958;-75
2023/10/02 06:11:25;;;;;;;;;;;;;;;20.39;56.68;100987.94;6144623;23;6785;-76
2023/10/02 06:13:56;;;;;;;;;;;;;;;20.44;56.72;100980.19;6167414;23;7268;-75
2023/10/02 06:16:29;;;;;;;;;;;;;;;20.51;56.65;100982.06;6168769;23;6779;-75
2023/10/02 06:19:02;;;;;;;;;;;;;;;20.57;56.15;100984.78;6168581;23;6763;-75
2023/10/02 06:21:28;;;;;;;;;;;;;;;20.61;56.34;100983.97;6146675;23;7079;-76
2023/10/02 06:23:53;;;;;;;;;;;;;;;20.67;56.44;100989.28;6170076;23;7071;-75
2023/10/02 06:26:19;;;;;;;;;;;;;;;20.72;56.03;100985.84;6168839;23;6910;-75
2023/10/02 06:28:48;;;;;;;;;;;;;;;20.75;55.74;100988.50;6171478;23;6814;-74
2023/10/02 06:31:30;;;;;;;;;;;;;;;20.80;56.24;100981.63;6172445;23;6939;-76
2023/10/02 06:33:57;;;;;;;;;;;;;;;20.87;56.05;100975.72;6165811;23;7304;-75
2023/10/02 06:36:22;;;;;;;;;;;;;;;20.96;56.29;100990.59;6102979;23;14388;-75
2023/10/02 06:38:48;;;;;;;;;;;;;;;21.03;56.00;100987.22;6118301;23;6826;-75
2023/10/02 06:41:15;;;;;;;;;;;;;;;21.12;56.17;100986.47;6115262;23;7018;-75
2023/10/02 06:43:41;;;;;;;;;;;;;;;21.18;56.03;100986.56;6115918;23;6846;-77
2023/10/02 06:46:13;;;;;;;;;;;;;;;21.23;55.97;100982.25;6143271;23;6929;-76
2023/10/02 06:51:20;;;;;;;;;;;;;;;21.34;55.67;100977.19;6120464;23;6996;-84
2023/10/02 06:53:46;;;;;;;;;;;;;;;21.43;55.85;100984.25;6119375;23;6761;-84
2023/10/02 06:56:13;;;;;;;;;;;;;;;21.45;55.64;100979.94;6120280;23;6921;-84
2023/10/02 06:58:52;;;;;;;;;;;;;;;21.53;55.58;100981.75;6119625;23;7023;-84
2023/10/02 07:01:18;;;;;;;;;;;;;;;21.57;55.67;100978.34;6107723;23;6943;-83
2023/10/02 07:03:51;;;;;;;;;;;;;;;21.63;55.40;100984.50;6115395;23;6918;-86
2023/10/02 07:06:23;;;;;;;;;;;;;;;21.70;55.59;100989.81;6092542;23;7372;-83
2023/10/02 07:09:09;;;;;;;;;;;;;;;21.75;55.48;100988.13;6090757;23;7086;-84
2023/10/02 07:11:39;;;;;;;;;;;;;;;21.77;55.63;100992.50;6109781;23;6825;-83
2023/10/02 07:14:09;;;;;;;;;;;;;;;21.84;55.51;100998.66;6114991;23;6953;-84
2023/10/02 07:16:37;;;;;;;;;;;;;;;21.91;55.27;100992.66;6065698;23;6795;-84
2023/10/02 07:19:06;;;;;;;;;;;;;;;22.02;55.22;100995.41;6113616;23;7203;-83
2023/10/02 07:21:35;;;;;;;;;;;;;;;22.12;55.51;100992.88;6113560;23;6937;-83
2023/10/02 07:24:02;;;;;;;;;;;;;;;22.23;55.16;100986.00;6138862;23;6968;-85
2023/10/02 07:26:51;;;;;;;;;;;;;;;22.37;54.92;100993.06;6064261;23;7145;-83
2023/10/02 07:29:19;;;;;;;;;;;;;;;22.48;54.88;100987.09;6093743;23;6939;-87
2023/10/02 07:31:45;;;;;;;;;;;;;;;22.63;55.02;100989.84;6108336;23;6782;-90
2023/10/02 07:34:15;;;;;;;;;;;;;;;22.75;54.62;100984.69;6100305;23;6963;-88
2023/10/02 07:36:44;;;;;;;;;;;;;;;22.86;54.66;100977.78;6073872;23;7383;-88
2023/10/02 07:42:00;;;;;;;;;;;;;;;23.08;54.37;100988.41;6113648;23;6763;-91
2023/10/02 07:44:38;;;;;;;;;;;;;;;23.22;53.71;100991.06;6100826;23;6910;-89
2023/10/02 07:47:16;;;;;;;;;;;;;;;23.29;53.17;100981.56;6097787;23;6826;-87
2023/10/02 07:49:48;;;;;;;;;;;;;;;23.45;53.39;100979.88;6106777;23;6924;-85
2023/10/02 07:52:30;;;;;;;;;;;;;;;23.55;53.07;100978.16;6129154;23;6933;-86
2023/10/02 07:55:00;;;;;;;;;;;;;;;23.67;53.19;100982.56;6085305;23;7214;-86
2023/10/02 07:57:32;;;;;;;;;;;;;;;23.78;53.20;100983.44;6106413;23;6751;-86
2023/10/02 08:03:02;;;;;;;;;;;;;;;23.98;52.33;100983.50;6108617;23;11616;-87
2023/10/02 08:05:35;;;;;;;;;;;;;;;24.12;52.10;100975.69;6110607;23;7226;-85
2023/10/02 08:08:16;;;;;;;;;;;;;;;24.25;51.98;100976.59;6108053;23;6773;-86
2023/10/02 08:10:49;;;;;;;;;;;;;;;24.34;51.60;100969.59;6106646;23;6938;-87
2023/10/02 08:13:35;;;;;;;;;;;;;;;24.47;51.44;100987.03;6130543;23;6914;-86
2023/10/02 08:16:17;;;;;;;;;;;;;;;24.59;51.50;100977.44;6134960;23;7126;-87
2023/10/02 08:19:10;;;;;;;;;;;;;;;24.66;51.48;100976.56;6112755;23;6792;-87
2023/10/02 08:21:48;;;;;;;;;;;;;;;24.74;50.96;100976.53;6135936;23;7015;-86
2023/10/02 08:24:22;;;;;;;;;;;;;;;24.82;50.66;100973.06;6087970;23;7172;-87
2023/10/02 08:26:56;;;;;;;;;;;;;;;24.92;50.69;100967.81;6106329;23;6875;-87
2023/10/02 08:29:29;;;;;;;;;;;;;;;25.02;50.69;100966.00;6109771;23;6915;-87
2023/10/02 08:32:00;;;;;;;;;;;;;;;25.18;50.45;100974.69;6079450;23;7250;-86
2023/10/02 08:34:26;;;;;;;;;;;;;;;25.28;50.51;100970.31;6106030;23;7193;-86
2023/10/02 08:37:08;;;;;;;;;;;;;;;25.43;50.20;100979.84;6079440;23;6960;-86
2023/10/02 08:39:44;;;;;;;;;;;;;;;25.49;50.32;100970.19;6128936;23;6829;-85
2023/10/02 08:42:25;;;;;;;;;;;;;;;25.56;49.72;100965.81;6133453;23;7597;-85
2023/10/02 08:47:24;;;;;;;;;;;;;;;25.70;49.87;100967.50;6147522;23;6878;-76
2023/10/02 08:50:03;;;;;;;;;;;;;;;25.78;49.44;100973.56;6121471;23;6938;-76
2023/10/02 08:52:38;;;;;;;;;;;;;;;25.87;49.27;100970.00;6144512;23;6763;-76
2023/10/02 09:09:13;;;;;;;;;;;;;;;26.38;48.75;100951.28;6131506;23;7033;-85
2023/10/02 09:11:35;;;;;;;;;;;;;;;26.52;47.96;100953.75;6130065;23;6935;-84
2023/10/02 09:14:22;;;;;;;;;;;;;;;26.67;47.45;100947.47;6085395;23;6947;-85
2023/10/02 09:19:28;;;;;;;;;;;;;;;26.88;47.46;100945.53;6152297;23;7034;-87
2023/10/02 09:22:07;;;;;;;;;;;;;;;27.01;47.53;100955.00;6130338;23;6961;-86
2023/10/02 09:37:27;;;;;;;;;;;;;;;27.59;45.95;100939.38;6149106;23;6858;-85
2023/10/02 09:40:17;;;;;;;;;;;;;;;27.70;45.66;100936.59;6144071;23;6807;-88
2023/10/02 09:43:34;;;;;;;;;;;;;;;27.83;45.89;100926.75;6133536;23;6918;-89
2023/10/02 09:46:29;;;;;;;;;;;;;;;27.99;45.52;100931.75;6158045;23;6759;-88
2023/10/02 09:53:40;;;;;;;;;;;;;;;28.32;45.34;100913.69;6113847;23;6750;-87
2023/10/02 09:57:12;;;;;;;;;;;;;;;28.57;44.21;100912.34;6104295;23;6908;-86
2023/10/02 10:04:08;;;;;;;;;;;;;;;29.03;44.34;100924.66;6127287;23;11426;-87
2023/10/02 10:07:35;;;;;;;;;;;;;;;29.38;44.19;100916.88;6099315;23;6941;-87
2023/10/02 10:10:48;;;;;;;;;;;;;;;30.18;43.29;100918.53;6087873;23;7033;-86
2023/10/02 10:17:21;;;;;;;;;;;;;;;33.06;39.84;100925.44;5952664;24;6772;-86
2023/10/02 10:20:30;;;;;;;;;;;;;;;34.29;38.10;100913.41;6021403;23;6756;-84
2023/10/02 10:23:18;;;;;;;;;;;;;;;35.51;36.23;100906.09;6148392;23;7122;-84
2023/10/02 10:26:07;;;;;;;;;;;;;;;36.50;34.73;100897.56;6102103;23;7151;-84
2023/10/02 10:28:53;;;;;;;;;;;;;;;37.15;33.68;100895.00;6099632;23;6790;-84
2023/10/02 10:31:55;;;;;;;;;;;;;;;37.57;32.75;100897.97;6078928;23;6943;-85
2023/10/02 10:35:12;;;;;;;;;;;;;;;38.14;31.97;100893.72;6071595;23;6801;-84
2023/10/02 10:37:48;;;;;;;;;;;;;;;38.78;31.12;100892.50;6120949;23;6974;-85
2023/10/02 10:40:46;;;;;;;;;;;;;;;39.14;30.43;100886.63;6097018;23;7027;-84
2023/10/02 10:43:17;;;;;;;;;;;;;;;39.48;29.88;100890.72;6096459;23;6950;-84
2023/10/02 10:45:48;;;;;;;;;;;;;;;39.83;29.38;100887.47;6093399;23;7036;-85
2023/10/02 10:48:26;;;;;;;;;;;;;;;40.08;28.78;100889.34;6071989;23;6824;-84
2023/10/02 10:51:06;;;;;;;;;;;;;;;40.38;28.37;100890.84;6095096;23;7237;-84
2023/10/02 10:53:33;;;;;;;;;;;;;;;40.69;28.20;100891.31;6118736;23;7052;-83
2023/10/02 10:56:05;;;;;;;;;;;;;;;41.00;27.78;100885.56;6096692;23;6810;-85
2023/10/02 10:58:33;;;;;;;;;;;;;;;41.27;26.80;100875.59;6075856;23;6812;-76
2023/10/02 11:01:05;;;;;;;;;;;;;;;41.59;26.69;100881.22;6118795;23;6786;-76
2023/10/02 11:03:30;;;;;;;;;;;;;;;41.94;26.18;100878.63;6137546;23;6766;-76
2023/10/02 11:06:04;;;;;;;;;;;;;;;42.32;26.04;100888.22;6114660;23;6918;-76
2023/10/02 11:08:33;;;;;;;;;;;;;;;42.59;25.71;100878.91;6116886;23;6774;-77
2023/10/02 11:11:11;;;;;;;;;;;;;;;42.69;24.63;100885.28;6115182;23;6831;-76
2023/10/02 11:13:51;;;;;;;;;;;;;;;42.55;24.43;100891.81;6115428;23;6949;-76
2023/10/02 11:16:34;;;;;;;;;;;;;;;42.58;24.25;100885.28;6132913;23;7142;-76
2023/10/02 11:19:21;;;;;;;;;;;;;;;42.69;23.64;100879.91;6115068;23;6767;-76
2023/10/02 11:22:15;;;;;;;;;;;;;;;42.78;23.94;100885.50;6118355;23;6809;-76
2023/10/02 11:24:53;;;;;;;;;;;;;;;42.60;24.35;100877.97;6117685;23;6962;-76
2023/10/02 11:27:20;;;;;;;;;;;;;;;42.52;24.61;100880.41;6141186;23;7387;-76
2023/10/02 11:30:01;;;;;;;;;;;;;;;42.64;23.98;100882.09;6141542;23;6783;-76
2023/10/02 11:33:05;;;;;;;;;;;;;;;42.66;23.83;100877.44;6137761;23;7205;-76
2023/10/02 11:35:37;;;;;;;;;;;;;;;42.44;24.27;100878.28;6119910;23;7055;-76
2023/10/02 11:38:07;;;;;;;;;;;;;;;42.24;23.97;100874.53;6116928;23;7260;-76
2023/10/02 11:40:34;;;;;;;;;;;;;;;42.11;23.70;100870.13;6116166;23;6843;-76
2023/10/02 11:43:00;;;;;;;;;;;;;;;42.03;23.84;100867.97;6115750;23;6961;-76
2023/10/02 11:45:29;;;;;;;;;;;;;;;42.12;23.79;100869.16;6116574;23;6822;-76
2023/10/02 11:47:56;;;;;;;;;;;;;;;42.38;23.66;100865.34;6139950;23;7341;-76
2023/10/02 11:50:23;;;;;;;;;;;;;;;42.59;23.48;100857.38;6113975;23;7019;-76
2023/10/02 11:52:49;;;;;;;;;;;;;;;42.60;22.89;100853.72;6116033;23;7018;-76
2023/10/02 11:55:18;;;;;;;;;;;;;;;42.57;23.39;100854.81;6114052;23;6779;-76
2023/10/02 11:57:51;;;;;;;;;;;;;;;42.59;23.24;100849.28;6120880;23;6941;-77
2023/10/02 12:00:22;;;;;;;;;;;;;;;42.36;23.53;100854.69;6096349;23;6976;-76
2023/10/02 12:02:49;;;;;;;;;;;;;;;42.09;23.52;100845.16;6146109;23;6834;-76
2023/10/02 12:05:17;;;;;;;;;;;;;;;41.56;23.51;100841.13;6123156;23;6942;-76
2023/10/02 12:07:44;;;;;;;;;;;;;;;41.06;24.10;100838.56;6115335;23;6783;-76
2023/10/02 12:10:15;;;;;;;;;;;;;;;40.59;24.39;100843.78;6120648;23;6771;-76
2023/10/02 12:12:45;;;;;;;;;;;;;;;40.24;24.56;100834.59;6123519;23;7088;-76
2023/10/02 12:15:14;;;;;;;;;;;;;;;39.87;24.70;100835.34;6123314;23;6779;-76
2023/10/02 12:17:40;;;;;;;;;;;;;;;39.30;25.08;100830.19;6148043;23;6953;-76
2023/10/02 12:20:10;;;;;;;;;;;;;;;38.68;25.74;100828.84;6122303;23;6759;-76
2023/10/02 12:22:37;;;;;;;;;;;;;;;38.09;26.20;100837.00;6145718;23;6902;-76
2023/10/02 12:25:09;;;;;;;;;;;;;;;37.58;26.58;100832.88;6097854;23;7183;-76
2023/10/02 12:27:35;;;;;;;;;;;;;;;37.12;26.97;100829.25;6123830;23;6774;-76
2023/10/02 12:30:01;;;;;;;;;;;;;;;36.74;27.55;100827.75;6121316;23;6762;-76
2023/10/02 12:32:27;;;;;;;;;;;;;;;36.40;28.02;100827.78;6120516;23;6775;-76
2023/10/02 12:34:53;;;;;;;;;;;;;;;36.14;28.50;100818.53;6122106;23;6779;-76
2023/10/02 12:37:20;;;;;;;;;;;;;;;35.93;29.00;100820.53;6122436;23;6771;-76
2023/10/02 12:39:47;;;;;;;;;;;;;;;35.70;29.21;100814.56;6120418;23;6925;-76
2023/10/02 12:42:15;;;;;;;;;;;;;;;35.51;29.78;100815.47;6121832;23;7488;-76
2023/10/02 12:44:41;;;;;;;;;;;;;;;35.37;30.34;100804.69;6121209;23;6850;-76
2023/10/02 12:47:07;;;;;;;;;;;;;;;35.27;30.07;100807.81;6146084;23;6775;-76
2023/10/02 12:49:35;;;;;;;;;;;;;;;35.18;30.50;100805.59;6117053;23;6775;-76
2023/10/02 12:52:01;;;;;;;;;;;;;;;35.12;30.16;100792.56;6118154;23;6988;-76
2023/10/02 12:54:27;;;;;;;;;;;;;;;35.12;31.17;100790.78;6118860;23;6906;-76
2023/10/02 12:56:53;;;;;;;;;;;;;;;35.15;30.53;100779.97;6119249;23;6795;-76
2023/10/02 12:59:19;;;;;;;;;;;;;;;35.20;30.60;100784.19;6119171;23;7046;-76
2023/10/02 13:01:45;;;;;;;;;;;;;;;35.21;30.90;100778.81;6162507;23;6950;-76
2023/10/02 13:04:12;;;;;;;;;;;;;;;35.22;30.75;100785.00;6150955;23;6898;-76
2023/10/02 13:06:38;;;;;;;;;;;;;;;35.16;30.54;100778.19;6124603;23;7132;-76
2023/10/02 13:09:10;;;;;;;;;;;;;;;35.04;29.80;100769.84;6119907;23;6992;-76
2023/10/02 13:11:39;;;;;;;;;;;;;;;34.93;29.89;100764.16;6124697;23;6985;-76
2023/10/02 13:14:09;;;;;;;;;;;;;;;34.83;29.90;100769.09;6148726;23;6972;-76
2023/10/02 13:16:41;;;;;;;;;;;;;;;34.70;30.11;100759.94;6123838;23;7059;-75
2023/10/02 13:19:09;;;;;;;;;;;;;;;34.58;30.52;100762.28;6150209;23;6838;-76
2023/10/02 13:21:40;;;;;;;;;;;;;;;34.52;30.30;100761.69;6147078;23;7010;-76
2023/10/02 13:24:10;;;;;;;;;;;;;;;34.43;30.64;100758.50;6125318;23;6962;-75
2023/10/02 13:26:38;;;;;;;;;;;;;;;34.39;31.03;100751.63;6151136;23;7037;-76
2023/10/02 13:29:05;;;;;;;;;;;;;;;34.38;31.42;100749.88;6177651;23;6800;-75
2023/10/02 13:31:31;;;;;;;;;;;;;;;34.38;31.78;100744.53;6152133;23;6854;-75
2023/10/02 13:33:57;;;;;;;;;;;;;;;34.35;31.62;100747.34;6178460;23;6758;-76
2023/10/02 13:36:25;;;;;;;;;;;;;;;34.34;31.70;100740.31;6153246;23;6964;-76
2023/10/02 13:38:58;;;;;;;;;;;;;;;34.27;31.79;100737.09;6127529;23;7232;-76
2023/10/02 13:41:26;;;;;;;;;;;;;;;34.18;31.45;100737.50;6152807;23;6767;-76
2023/10/02 13:43:54;;;;;;;;;;;;;;;34.04;30.79;100730.16;6176748;23;7249;-76
2023/10/02 13:46:22;;;;;;;;;;;;;;;33.90;31.05;100728.09;6153716;23;7190;-76
2023/10/02 13:48:52;;;;;;;;;;;;;;;33.75;31.30;100714.56;6151928;23;6778;-76
2023/10/02 13:51:19;;;;;;;;;;;;;;;33.62;31.36;100714.28;6125241;23;6945;-76
2023/10/02 13:53:46;;;;;;;;;;;;;;;33.50;31.65;100705.03;6175110;23;6857;-75
2023/10/02 13:56:17;;;;;;;;;;;;;;;33.37;31.89;100703.81;6149678;23;8113;-76
2023/10/02 13:58:48;;;;;;;;;;;;;;;33.25;31.67;100710.53;6149890;23;6775;-76
2023/10/02 14:01:16;;;;;;;;;;;;;;;33.16;32.24;100713.56;6152308;23;6778;-76
2023/10/02 14:03:45;;;;;;;;;;;;;;;33.12;33.03;100710.16;6152262;23;6775;-76
2023/10/02 14:06:14;;;;;;;;;;;;;;;33.13;32.79;100711.00;6152043;23;6850;-76
2023/10/02 14:08:40;;;;;;;;;;;;;;;33.13;32.74;100711.00;6149993;23;7042;-76
2023/10/02 14:11:08;;;;;;;;;;;;;;;33.14;33.13;100710.97;6172967;23;7031;-76
2023/10/02 14:13:36;;;;;;;;;;;;;;;33.14;33.24;100705.66;6152344;23;7304;-76
2023/10/02 14:16:06;;;;;;;;;;;;;;;33.13;33.31;100703.03;6150208;23;7064;-75
2023/10/02 14:18:34;;;;;;;;;;;;;;;33.16;33.65;100690.50;6204205;23;8116;-74
2023/10/02 14:21:05;;;;;;;;;;;;;;;33.25;33.72;100694.59;6177834;23;7019;-75
2023/10/02 14:23:31;;;;;;;;;;;;;;;33.38;33.54;100690.47;6179300;23;7015;-76
2023/10/02 14:26:01;;;;;;;;;;;;;;;33.49;33.00;100686.50;6179008;23;6945;-75
2023/10/02 14:28:30;;;;;;;;;;;;;;;33.54;32.94;100683.63;6179484;23;7196;-74
2023/10/02 14:30:56;;;;;;;;;;;;;;;33.57;32.86;100672.91;6178424;23;7211;-75
2023/10/02 14:33:25;;;;;;;;;;;;;;;33.58;32.70;100670.16;6179283;23;6966;-75
2023/10/02 14:35:57;;;;;;;;;;;;;;;33.60;33.12;100676.25;6150705;23;6816;-75
2023/10/02 14:38:24;;;;;;;;;;;;;;;33.61;32.97;100670.03;6176329;23;6978;-75
2023/10/02 14:40:52;;;;;;;;;;;;;;;33.64;33.32;100674.31;6175153;23;6812;-75
2023/10/02 14:43:20;;;;;;;;;;;;;;;33.64;32.93;100664.56;6177584;23;6767;-75
2023/10/02 14:45:46;;;;;;;;;;;;;;;33.62;33.17;100660.25;6201697;23;7297;-76
2023/10/02 14:48:16;;;;;;;;;;;;;;;33.60;33.45;100665.63;6177804;23;7075;-75
2023/10/02 14:50:44;;;;;;;;;;;;;;;33.58;33.43;100659.53;6175892;23;7006;-75